Oss, Netherlands
Current Conditions -  °F | °C
As of 8:25 PM on Thursday 23 Oct 2014 (Local Time) from EHVK Reporting Station
Overcast Overcast  
Wind Chill: 55°   Ceiling: 4700
Heat Index: 55°   Visibility: 6mi
Dew Point: 52°   Wind: 9mph
Humidity: 88%   Direction: 200°SSW
Pressure: 30.15"   Gusts: NA
Location:  51.77°N, 5.52°E
Report Text: EHVK 231825Z AUTO 20008KT 9999 OVC047 13/11 Q1021 BLU
Loading
Personal Weather Stations






























Interactive Weather Map
Tropical Storm Tracking
New forecast layout! Learn more

10-Day Weather Forecast

Advertisements
Track Severe Weather on mobile